KVNYKSMO

Guest
Details From KVNY - Van Nuys
To KSMO - Santa Monica Muni
Flight Number -
Tags Generated
Created
Modified
Stats Distance 13 nm / 23 km
Max Altitude 0 ft / 0 m
Waypoints 2
Social Downloads 1
Likes 0
Share VATSIM

Download

Looking for another format? Having issues loading an existing format? Contact us
Advertisement - Login to hide

Notes

Generated

Route

KVNY KSMO

ID Type Via Altitude Latitude Longitude Leg Dist Tot Dist Heading (true) Name
O KVNY APT - 0 ft / 0 m 34.21899˚ -118.49000˚ - 0 nm - -
O KSMO APT - 0 ft / 0 m 34.01098˚ -118.45709˚ 12 nm 12 nm 173° / 173° -

Altitude Profile

Advertisement - Login to hide

KVNY

Details ICAO KVNY (VNY)
Name Van Nuys
Region United States
Timezone America/Los_Angeles (UTC-7.0)
Stats Elevation 802 ft / 244 m (AMSL)
Location 34.210723° -118.489841°
Runways 2
Magnetic Variation 12.035° E

METAR

KVNY 270751Z AUTO 09005KT 10SM CLR 14/11 A2995 RMK AO2 SLP136 T01440106 402220111

Decode

TAF

KVNY 270529Z 2706/2806 11006KT P6SM SKC FM271100 11006KT P6SM BKN010 FM271600 VRB03KT P6SM SKC FM272000 12008KT P6SM SKC FM280500 VRB03KT P6SM SKC

Decode

Departure Runways

ID Width Length Bearing (true) Bearing (mag) Surface Threshold Offset Overrun Length
16L 75 ft / 23 m 4,021 ft / 1,226 m 175.53° 163.49° Asphalt 1,430 ft / 436 m 0 ft / 0 m
16R 151 ft / 46 m 8,022 ft / 2,445 m 175.54° 163.50° Asphalt 1,430 ft / 436 m 151 ft / 46 m
34L 151 ft / 46 m 8,022 ft / 2,445 m 355.54° 343.50° Asphalt 0 ft / 0 m 151 ft / 46 m
34R 75 ft / 23 m 4,021 ft / 1,226 m 355.53° 343.49° Asphalt 0 ft / 0 m 0 ft / 0 m

KSMO

Details ICAO KSMO (SMO)
Name SANTA MONICA MUNI
Region United States
Timezone America/Los_Angeles (UTC-7.0)
Stats Elevation 177 ft / 54 m (AMSL)
Location 34.015847° -118.451329°
Runways 1
Magnetic Variation 11.990° E

METAR

KSMO 270751Z AUTO 08003KT 10SM CLR 14/11 A2996 RMK AO2 SLP145 T01390111 401940122

Decode

TAF

TAF KSMO 270529Z 2706/2806 VRB03KT P6SM SKC FM271100 VRB03KT P6SM OVC015 FM271900 24010KT P6SM SKC FM280300 VRB03KT P6SM BKN015

Decode

Destination Runways

ID Width Length Bearing (true) Bearing (mag) Surface Threshold Offset Overrun Length
03 151 ft / 46 m 4,978 ft / 1,517 m 44.45° 32.46° Asphalt 0 ft / 0 m 0 ft / 0 m
21 151 ft / 46 m 4,978 ft / 1,517 m 224.46° 212.47° Asphalt 0 ft / 0 m 0 ft / 0 m

Popular Alternatives